Clearwater Air Park

Current Flights

Departures
Number Departure To Airline
 N9139X 14:30 +10  Leesburg  Novair
 N5194C 21:00 +10  Melbourne  Nolinor Aviation
 N56ME 21:00 +10  Marathon  Nolinor Aviation
Arrivals
Number Arrival From Airline
 N5194C 14:57  Melbourne  Nolinor Aviation
 N56ME 15:59  Marathon  Nolinor Aviation
Info
Name: Clearwater Air Park
Identifier:  CLW/KCLW
Local Time:  19. May 14:36
City
Flights per Day
2 flights
Distance: 242km (150mi)
Punctuality
90% (0 flights per day delayed)
Delay Average: 20 minutes
Current Weather
 26 C (Humidity: 69%)
  4kt (7km/h / 4mph) from 120°
  16km (10 mi.)
 
 METAR KCLW 191355Z AUTO 12004KT 10SM CLR 26/20 A3003 RMK AO2

Current Delays

Departures
N/A
Arrivals
N/A

Destinations

Top Destinations
Airport Flights
per week
Seats
per week
  Stuart (SUA) <1 - 0 0
  Orlando (ORL) <1 - 0 0
  St. Petersburg (PIE) <1 - 0 0
  Kissimmee (ISM) <1 - 0 0

Airlines & Planes

Top Airlines
Airline Flights
per Day
Seats
per Day
  Nolinor Aviation 1 -
Jet Charter Inc ( Franklin Lakes Nj ) <1 -
  National Airlines <1 -
  Novair <1 -
  Flybe Nordic <1 -
Executive Flight Services <1 -
Gama Aviation <1 -
Top Plane Types
Manufacturer Model Flights Seats
Cirrus SR22 1.0/day - 0
Cessna C172 0.9/day - 0
Cessna C182 0.1/day - 0